createdAt,value
2023-05-09T00:00:19.814Z,1004.52
2023-05-09T00:01:19.822Z,1004.57
2023-05-09T00:02:19.818Z,1004.60
2023-05-09T00:03:19.899Z,1004.57
2023-05-09T00:04:19.857Z,1004.53
2023-05-09T00:05:19.726Z,1004.61
2023-05-09T00:06:19.910Z,1004.53
2023-05-09T00:07:19.698Z,1004.55
2023-05-09T00:08:19.700Z,1004.55
2023-05-09T00:09:19.717Z,1004.59
2023-05-09T00:10:19.677Z,1004.52
2023-05-09T00:11:19.658Z,1004.56
2023-05-09T00:12:19.632Z,1004.60
2023-05-09T00:13:19.667Z,1004.55
2023-05-09T00:14:19.627Z,1004.58
2023-05-09T00:15:19.604Z,1004.60
2023-05-09T00:16:19.635Z,1004.59
2023-05-09T00:17:19.567Z,1004.58
2023-05-09T00:18:19.562Z,1004.53
2023-05-09T00:19:20.126Z,1004.64
2023-05-09T00:20:19.543Z,1004.69
2023-05-09T00:21:19.515Z,1004.61
2023-05-09T00:22:19.495Z,1004.58
2023-05-09T00:23:19.488Z,1004.61
2023-05-09T00:24:19.473Z,1004.53
2023-05-09T00:25:19.471Z,1004.54
2023-05-09T00:26:19.458Z,1004.56
2023-05-09T00:27:19.427Z,1004.51
2023-05-09T00:28:19.414Z,1004.52
2023-05-09T00:29:19.418Z,1004.50
2023-05-09T00:30:19.409Z,1004.47
2023-05-09T00:31:19.377Z,1004.46
2023-05-09T00:32:19.383Z,1004.49
2023-05-09T00:33:19.349Z,1004.40
2023-05-09T00:34:19.347Z,1004.41
2023-05-09T00:35:19.470Z,1004.38
2023-05-09T00:36:19.308Z,1004.36
2023-05-09T00:37:19.306Z,1004.32
2023-05-09T00:38:19.290Z,1004.36
2023-05-09T00:39:19.302Z,1004.33
2023-05-09T00:40:19.262Z,1004.36
2023-05-09T00:41:19.234Z,1004.33
2023-05-09T00:42:19.246Z,1004.33
2023-05-09T00:43:19.256Z,1004.37
2023-05-09T00:44:19.222Z,1004.31
2023-05-09T00:45:19.191Z,1004.30
2023-05-09T00:46:19.196Z,1004.27
2023-05-09T00:47:19.165Z,1004.26
2023-05-09T00:48:19.174Z,1004.25
2023-05-09T00:49:19.136Z,1004.26
2023-05-09T00:50:19.135Z,1004.21
2023-05-09T00:51:19.249Z,1004.18
2023-05-09T00:52:19.103Z,1004.18
2023-05-09T00:53:19.095Z,1004.15
2023-05-09T00:54:19.093Z,1004.19
2023-05-09T00:55:19.059Z,1004.14
2023-05-09T00:56:19.042Z,1004.21
2023-05-09T00:57:19.046Z,1004.22
2023-05-09T00:58:19.031Z,1004.21
2023-05-09T00:59:19.002Z,1004.17
2023-05-09T01:00:18.990Z,1004.22
2023-05-09T01:01:19.009Z,1004.25
2023-05-09T01:02:19.022Z,1004.23
2023-05-09T01:03:19.070Z,1004.24
2023-05-09T01:04:18.948Z,1004.22
2023-05-09T01:05:18.932Z,1004.19
2023-05-09T01:06:18.917Z,1004.21
2023-05-09T01:07:19.024Z,1004.16
2023-05-09T01:08:18.881Z,1004.17
2023-05-09T01:09:18.864Z,1004.14
2023-05-09T01:10:18.867Z,1004.14
2023-05-09T01:11:18.840Z,1004.12
2023-05-09T01:12:18.844Z,1004.13
2023-05-09T01:13:18.842Z,1004.09
2023-05-09T01:14:18.797Z,1004.02
2023-05-09T01:15:18.786Z,1004.04
2023-05-09T01:16:18.799Z,1004.07
2023-05-09T01:17:18.782Z,1004.02
2023-05-09T01:18:18.746Z,1004.08
2023-05-09T01:19:18.736Z,1004.03
2023-05-09T01:20:18.747Z,1004.01
2023-05-09T01:21:18.726Z,1003.92
2023-05-09T01:22:18.694Z,1003.92
2023-05-09T01:23:18.797Z,1003.93
2023-05-09T01:24:18.684Z,1003.91
2023-05-09T01:25:18.654Z,1004.01
2023-05-09T01:26:18.659Z,1004.00
2023-05-09T01:27:18.624Z,1003.92
2023-05-09T01:28:18.614Z,1003.94
2023-05-09T01:29:18.600Z,1003.96
2023-05-09T01:30:18.587Z,1004.01
2023-05-09T01:31:18.638Z,1003.98
2023-05-09T01:32:18.561Z,1004.04
2023-05-09T01:33:18.545Z,1003.96
2023-05-09T01:34:18.549Z,1003.96
2023-05-09T01:35:18.557Z,1004.04
2023-05-09T01:36:18.538Z,1003.95
2023-05-09T01:37:18.492Z,1004.02
2023-05-09T01:38:18.483Z,1003.96
2023-05-09T01:39:18.585Z,1003.92
2023-05-09T01:40:18.467Z,1003.98
2023-05-09T01:41:18.442Z,1003.95
2023-05-09T01:42:18.442Z,1003.93
2023-05-09T01:43:18.441Z,1003.94
2023-05-09T01:44:18.443Z,1003.96
2023-05-09T01:45:18.400Z,1003.94
2023-05-09T01:46:18.438Z,1003.95
2023-05-09T01:47:18.360Z,1003.92
2023-05-09T01:48:18.364Z,1003.90
2023-05-09T01:49:18.362Z,1003.90
2023-05-09T01:50:18.337Z,1003.94
2023-05-09T01:51:18.309Z,1003.91
2023-05-09T01:52:18.299Z,1003.87
2023-05-09T01:53:18.278Z,1003.88
2023-05-09T01:54:18.288Z,1003.89
2023-05-09T01:55:18.379Z,1003.88
2023-05-09T01:56:18.242Z,1003.87
2023-05-09T01:57:18.232Z,1003.85
2023-05-09T01:58:18.241Z,1003.82
2023-05-09T01:59:18.222Z,1003.87
2023-05-09T02:00:18.202Z,1003.89
2023-05-09T02:01:18.220Z,1003.89
2023-05-09T02:02:18.231Z,1003.85
2023-05-09T02:03:18.219Z,1003.85
2023-05-09T02:04:18.154Z,1003.85
2023-05-09T02:05:18.223Z,1003.88
2023-05-09T02:06:18.104Z,1003.83
2023-05-09T02:07:18.093Z,1003.83
2023-05-09T02:08:18.095Z,1003.79
2023-05-09T02:09:18.066Z,1003.78
2023-05-09T02:10:18.067Z,1003.79
2023-05-09T02:11:18.161Z,1003.77
2023-05-09T02:12:18.063Z,1003.79
2023-05-09T02:13:18.183Z,1003.81
2023-05-09T02:14:18.016Z,1003.77
2023-05-09T02:15:17.991Z,1003.86
2023-05-09T02:16:19.037Z,1003.78
2023-05-09T02:17:17.990Z,1003.76
2023-05-09T02:18:17.955Z,1003.79
2023-05-09T02:19:17.931Z,1003.74
2023-05-09T02:20:17.923Z,1003.74
2023-05-09T02:21:17.924Z,1003.71
2023-05-09T02:22:17.909Z,1003.68
2023-05-09T02:23:17.885Z,1003.67
2023-05-09T02:24:17.870Z,1003.63
2023-05-09T02:25:17.853Z,1003.66
2023-05-09T02:26:17.850Z,1003.64
2023-05-09T02:27:17.962Z,1003.61
2023-05-09T02:28:17.828Z,1003.58
2023-05-09T02:29:17.824Z,1003.55
2023-05-09T02:30:17.800Z,1003.58
2023-05-09T02:31:17.790Z,1003.60
2023-05-09T02:32:17.799Z,1003.62
2023-05-09T02:33:17.765Z,1003.65
2023-05-09T02:34:17.733Z,1003.58
2023-05-09T02:35:17.728Z,1003.66
2023-05-09T02:36:17.724Z,1003.69
2023-05-09T02:37:17.705Z,1003.58
2023-05-09T02:38:17.692Z,1003.60
2023-05-09T02:39:17.667Z,1003.59
2023-05-09T02:40:17.655Z,1003.66
2023-05-09T02:41:17.656Z,1003.60
2023-05-09T02:42:17.697Z,1003.62
2023-05-09T02:43:17.874Z,1003.58
2023-05-09T02:44:17.609Z,1003.56
2023-05-09T02:45:17.590Z,1003.55
2023-05-09T02:46:17.628Z,1003.55
2023-05-09T02:47:17.560Z,1003.50
2023-05-09T02:48:17.549Z,1003.50
2023-05-09T02:49:30.978Z,1003.52
2023-05-09T02:50:18.544Z,1003.47
2023-05-09T02:51:17.526Z,1003.52
2023-05-09T02:52:17.500Z,1003.44
2023-05-09T02:53:17.481Z,1003.44
2023-05-09T02:54:17.473Z,1003.48
2023-05-09T02:55:17.732Z,1003.40
2023-05-09T02:56:17.445Z,1003.46
2023-05-09T02:57:17.426Z,1003.43
2023-05-09T02:58:17.423Z,1003.44
2023-05-09T02:59:17.531Z,1003.43
2023-05-09T03:00:17.403Z,1003.43
2023-05-09T03:01:17.451Z,1003.38
2023-05-09T03:02:17.370Z,1003.42
2023-05-09T03:03:17.402Z,1003.39
2023-05-09T03:04:17.354Z,1003.35
2023-05-09T03:05:17.347Z,1003.37
2023-05-09T03:06:17.313Z,1003.36
2023-05-09T03:07:17.296Z,1003.26
2023-05-09T03:08:17.312Z,1003.27
2023-05-09T03:09:17.281Z,1003.24
2023-05-09T03:10:17.268Z,1003.26
2023-05-09T03:11:17.242Z,1003.26
2023-05-09T03:12:17.227Z,1003.28
2023-05-09T03:13:17.263Z,1003.29
2023-05-09T03:14:17.218Z,1003.30
2023-05-09T03:15:17.308Z,1003.16
2023-05-09T03:16:17.218Z,1003.25
2023-05-09T03:17:17.184Z,1003.19
2023-05-09T03:18:17.189Z,1003.22
2023-05-09T03:19:17.151Z,1003.16
2023-05-09T03:20:17.121Z,1003.25
2023-05-09T03:21:17.114Z,1003.17
2023-05-09T03:22:17.094Z,1003.22
2023-05-09T03:23:17.105Z,1003.25
2023-05-09T03:24:17.076Z,1003.18
2023-05-09T03:25:17.468Z,1003.22
2023-05-09T03:26:17.048Z,1003.16
2023-05-09T03:27:17.032Z,1003.22
2023-05-09T03:28:17.048Z,1003.16
2023-05-09T03:29:17.003Z,1003.13
2023-05-09T03:30:16.993Z,1003.13
2023-05-09T03:31:17.099Z,1003.10
2023-05-09T03:32:16.983Z,1003.08
2023-05-09T03:33:16.966Z,1003.10
2023-05-09T03:34:16.948Z,1003.07
2023-05-09T03:35:17.181Z,1003.08
2023-05-09T03:36:16.926Z,1003.07
2023-05-09T03:37:16.912Z,1003.02
2023-05-09T03:38:16.917Z,1003.02
2023-05-09T03:39:16.875Z,1003.01
2023-05-09T03:40:16.860Z,1003.00
2023-05-09T03:41:16.857Z,1003.02
2023-05-09T03:42:16.862Z,1002.98
2023-05-09T03:43:16.832Z,1003.02
2023-05-09T03:44:16.841Z,1003.01
2023-05-09T03:45:16.929Z,1003.00
2023-05-09T03:46:16.818Z,1003.00
2023-05-09T03:47:16.920Z,1003.00
2023-05-09T03:48:16.757Z,1002.96
2023-05-09T03:49:16.745Z,1003.00
2023-05-09T03:50:16.728Z,1003.04
2023-05-09T03:51:16.713Z,1003.00
2023-05-09T03:52:16.723Z,1003.04
2023-05-09T03:53:16.707Z,1003.00
2023-05-09T03:54:16.689Z,1003.03
2023-05-09T03:55:16.833Z,1003.01
2023-05-09T03:56:16.662Z,1002.98
2023-05-09T03:57:16.692Z,1003.02
2023-05-09T03:58:16.650Z,1002.99
2023-05-09T03:59:16.606Z,1002.98
2023-05-09T04:00:16.592Z,1003.00
2023-05-09T04:01:16.594Z,1003.02
2023-05-09T04:02:16.602Z,1003.01
2023-05-09T04:03:16.843Z,1003.00
2023-05-09T04:04:16.538Z,1002.99
2023-05-09T04:05:16.943Z,1002.97
2023-05-09T04:06:16.619Z,1003.01
2023-05-09T04:07:16.514Z,1002.98
2023-05-09T04:08:16.495Z,1002.94
2023-05-09T04:09:16.582Z,1002.95
2023-05-09T04:10:16.457Z,1002.92
2023-05-09T04:11:16.479Z,1002.88
2023-05-09T04:12:16.511Z,1002.92
2023-05-09T04:13:16.476Z,1002.88
2023-05-09T04:14:16.404Z,1002.94
2023-05-09T04:15:16.646Z,1002.84
2023-05-09T04:16:16.417Z,1002.84
2023-05-09T04:17:16.381Z,1002.82
2023-05-09T04:18:16.363Z,1002.84
2023-05-09T04:19:16.681Z,1002.85
2023-05-09T04:20:16.353Z,1002.88
2023-05-09T04:21:16.315Z,1002.88
2023-05-09T04:22:16.298Z,1002.87
2023-05-09T04:23:16.294Z,1002.89
2023-05-09T04:24:16.303Z,1002.88
2023-05-09T04:25:16.417Z,1002.83
2023-05-09T04:26:16.249Z,1002.87
2023-05-09T04:27:16.235Z,1002.84
2023-05-09T04:28:16.223Z,1002.84
2023-05-09T04:29:16.223Z,1002.88
2023-05-09T04:30:16.206Z,1002.93
2023-05-09T04:31:16.329Z,1002.88
2023-05-09T04:32:16.247Z,1002.87
2023-05-09T04:33:16.156Z,1002.87
2023-05-09T04:34:16.157Z,1002.88
2023-05-09T04:35:18.147Z,1002.89
2023-05-09T04:36:16.129Z,1002.80
2023-05-09T04:37:16.131Z,1002.86
2023-05-09T04:38:16.113Z,1002.89
2023-05-09T04:39:16.091Z,1002.91
2023-05-09T04:40:16.106Z,1002.91
2023-05-09T04:41:16.063Z,1002.97
2023-05-09T04:42:16.036Z,1002.93
2023-05-09T04:43:16.057Z,1002.89
2023-05-09T04:44:16.012Z,1002.90
2023-05-09T04:45:16.208Z,1002.87
2023-05-09T04:46:15.996Z,1002.93
2023-05-09T04:47:15.974Z,1002.92
2023-05-09T04:48:16.008Z,1002.89
2023-05-09T04:49:15.945Z,1002.85
2023-05-09T04:50:15.930Z,1002.90
2023-05-09T04:51:15.954Z,1002.90
2023-05-09T04:52:15.930Z,1002.86
2023-05-09T04:53:15.933Z,1002.92
2023-05-09T04:54:15.878Z,1002.90
2023-05-09T04:55:16.080Z,1002.87
2023-05-09T04:56:15.849Z,1002.87
2023-05-09T04:57:18.317Z,1002.91
2023-05-09T04:58:15.826Z,1002.94
2023-05-09T04:59:15.849Z,1002.96
2023-05-09T05:00:15.802Z,1002.96
2023-05-09T05:01:15.815Z,1002.94
2023-05-09T05:02:15.788Z,1002.99
2023-05-09T05:03:15.757Z,1002.97
2023-05-09T05:04:15.764Z,1003.01
2023-05-09T05:05:15.731Z,1002.96
2023-05-09T05:06:15.717Z,1002.99
2023-05-09T05:07:15.904Z,1003.03
2023-05-09T05:08:15.694Z,1003.00
2023-05-09T05:09:15.684Z,1003.03
2023-05-09T05:10:15.682Z,1003.02
2023-05-09T05:11:15.669Z,1003.00
2023-05-09T05:12:15.651Z,1002.91
2023-05-09T05:13:15.667Z,1002.88
2023-05-09T05:14:15.618Z,1002.88
2023-05-09T05:15:15.974Z,1002.87
2023-05-09T05:16:15.613Z,1002.84
2023-05-09T05:17:15.572Z,1002.74
2023-05-09T05:18:15.568Z,1002.77
2023-05-09T05:19:15.551Z,1002.75
2023-05-09T05:20:15.533Z,1002.68
2023-05-09T05:21:15.541Z,1002.69
2023-05-09T05:22:15.503Z,1002.64
2023-05-09T05:23:15.609Z,1002.63
2023-05-09T05:24:15.485Z,1002.65
2023-05-09T05:25:15.784Z,1002.58
2023-05-09T05:26:15.481Z,1002.60
2023-05-09T05:27:15.438Z,1002.56
2023-05-09T05:28:15.422Z,1002.63
2023-05-09T05:29:15.413Z,1002.59
2023-05-09T05:30:15.437Z,1002.48
2023-05-09T05:31:15.416Z,1002.55
2023-05-09T05:32:15.386Z,1002.52
2023-05-09T05:33:15.411Z,1002.52
2023-05-09T05:34:15.343Z,1002.58
2023-05-09T05:35:15.779Z,1002.56
2023-05-09T05:36:15.328Z,1002.50
2023-05-09T05:37:15.305Z,1002.53
2023-05-09T05:38:15.295Z,1002.55
2023-05-09T05:39:15.551Z,1002.57
2023-05-09T05:40:15.281Z,1002.56
2023-05-09T05:41:15.247Z,1002.58
2023-05-09T05:42:15.236Z,1002.56
2023-05-09T05:43:15.241Z,1002.54
2023-05-09T05:44:15.224Z,1002.57
2023-05-09T05:45:15.465Z,1002.50
2023-05-09T05:46:15.224Z,1002.57
2023-05-09T05:47:15.177Z,1002.56
2023-05-09T05:48:15.155Z,1002.54
2023-05-09T05:49:15.178Z,1002.55
2023-05-09T05:50:15.142Z,1002.51
2023-05-09T05:51:15.138Z,1002.55
2023-05-09T05:52:15.100Z,1002.56
2023-05-09T05:53:15.089Z,1002.52
2023-05-09T05:54:15.088Z,1002.55
2023-05-09T05:55:15.444Z,1002.54
2023-05-09T05:56:15.048Z,1002.57
2023-05-09T05:57:15.035Z,1002.55
2023-05-09T05:58:15.045Z,1002.63
2023-05-09T05:59:15.037Z,1002.53
2023-05-09T06:00:15.028Z,1002.56
2023-05-09T06:01:14.981Z,1002.59
2023-05-09T06:02:14.997Z,1002.61
2023-05-09T06:03:15.027Z,1002.63
2023-05-09T06:04:15.016Z,1002.67
2023-05-09T06:05:15.084Z,1002.57
2023-05-09T06:06:14.914Z,1002.64
2023-05-09T06:07:14.900Z,1002.69
2023-05-09T06:08:14.914Z,1002.64
2023-05-09T06:09:14.882Z,1002.57
2023-05-09T06:10:14.860Z,1002.60
2023-05-09T06:11:14.966Z,1002.57
2023-05-09T06:12:14.837Z,1002.57
2023-05-09T06:13:14.862Z,1002.62
2023-05-09T06:14:14.815Z,1002.67
2023-05-09T06:15:14.981Z,1002.66
2023-05-09T06:16:19.601Z,1002.68
2023-05-09T06:17:15.911Z,1002.68
2023-05-09T06:18:14.769Z,1002.59
2023-05-09T06:19:14.757Z,1002.54
2023-05-09T06:20:14.730Z,1002.55
2023-05-09T06:21:14.734Z,1002.49
2023-05-09T06:22:14.720Z,1002.49
2023-05-09T06:23:14.688Z,1002.48
2023-05-09T06:24:27.486Z,1002.51
2023-05-09T06:25:14.916Z,1002.51
2023-05-09T06:26:14.650Z,1002.53
2023-05-09T06:27:14.779Z,1002.53
2023-05-09T06:28:14.625Z,1002.50
2023-05-09T06:29:14.612Z,1002.57
2023-05-09T06:30:25.535Z,1002.50
2023-05-09T06:31:15.643Z,1002.55
2023-05-09T06:32:14.584Z,1002.50
2023-05-09T06:33:14.557Z,1002.48
2023-05-09T06:34:14.544Z,1002.52
2023-05-09T06:35:14.773Z,1002.53
2023-05-09T06:36:14.539Z,1002.47
2023-05-09T06:37:14.524Z,1002.48
2023-05-09T06:38:14.494Z,1002.49
2023-05-09T06:39:14.481Z,1002.43
2023-05-09T06:40:14.464Z,1002.49
2023-05-09T06:41:14.491Z,1002.56
2023-05-09T06:42:14.442Z,1002.50
2023-05-09T06:43:14.548Z,1002.48
2023-05-09T06:44:14.414Z,1002.49
2023-05-09T06:45:14.713Z,1002.48
2023-05-09T06:46:14.477Z,1002.46
2023-05-09T06:47:14.387Z,1002.48
2023-05-09T06:48:14.364Z,1002.43
2023-05-09T06:49:14.346Z,1002.46
2023-05-09T06:50:14.332Z,1002.41
2023-05-09T06:51:14.336Z,1002.33
2023-05-09T06:52:14.305Z,1002.40
2023-05-09T06:53:14.299Z,1002.35
2023-05-09T06:54:14.279Z,1002.36
2023-05-09T06:55:14.426Z,1002.37
2023-05-09T06:56:14.266Z,1002.43
2023-05-09T06:57:14.238Z,1002.31
2023-05-09T06:58:14.230Z,1002.30
2023-05-09T06:59:14.333Z,1002.33
2023-05-09T07:00:14.223Z,1002.35
2023-05-09T07:01:14.233Z,1002.27
2023-05-09T07:02:14.191Z,1002.13
2023-05-09T07:03:14.165Z,1002.18
2023-05-09T07:04:14.172Z,1002.20
2023-05-09T07:05:14.371Z,1002.15
2023-05-09T07:06:14.126Z,1002.15
2023-05-09T07:07:14.110Z,1002.16
2023-05-09T07:08:14.098Z,1002.17
2023-05-09T07:09:14.113Z,1002.11
2023-05-09T07:10:14.076Z,1002.18
2023-05-09T07:11:14.076Z,1002.15
2023-05-09T07:12:14.039Z,1002.13
2023-05-09T07:13:14.061Z,1002.08
2023-05-09T07:14:14.036Z,1002.12
2023-05-09T07:15:18.555Z,1002.09
2023-05-09T07:16:15.074Z,1002.17
2023-05-09T07:17:22.861Z,1002.07
2023-05-09T07:18:14.979Z,1002.00
2023-05-09T07:19:13.985Z,1002.03
2023-05-09T07:20:13.930Z,1002.06
2023-05-09T07:21:13.921Z,1002.03
2023-05-09T07:22:13.911Z,1001.98
2023-05-09T07:23:13.908Z,1002.01
2023-05-09T07:24:13.876Z,1002.01
2023-05-09T07:25:14.051Z,1001.98
2023-05-09T07:26:13.851Z,1001.95
2023-05-09T07:27:13.842Z,1001.90
2023-05-09T07:28:13.856Z,1001.90
2023-05-09T07:29:13.813Z,1001.97
2023-05-09T07:30:14.068Z,1001.93
2023-05-09T07:31:13.946Z,1001.93
2023-05-09T07:32:13.863Z,1001.93
2023-05-09T07:33:13.804Z,1001.90
2023-05-09T07:34:13.739Z,1001.90
2023-05-09T07:35:14.033Z,1001.90
2023-05-09T07:36:13.722Z,1001.93
2023-05-09T07:37:15.372Z,1001.94
2023-05-09T07:38:13.691Z,1001.91
2023-05-09T07:39:13.674Z,1001.87
2023-05-09T07:40:14.051Z,1001.86
2023-05-09T07:41:13.649Z,1001.84
2023-05-09T07:42:13.656Z,1001.92
2023-05-09T07:43:13.620Z,1001.84
2023-05-09T07:44:13.604Z,1001.82
2023-05-09T07:45:13.928Z,1001.84
2023-05-09T07:46:13.626Z,1001.88
2023-05-09T07:47:13.706Z,1001.83
2023-05-09T07:48:13.554Z,1001.81
2023-05-09T07:49:13.536Z,1001.80
2023-05-09T07:50:13.529Z,1001.73
2023-05-09T07:51:13.538Z,1001.72
2023-05-09T07:52:13.504Z,1001.72
2023-05-09T07:53:13.496Z,1001.73
2023-05-09T07:54:13.472Z,1001.67
2023-05-09T07:55:13.648Z,1001.71
2023-05-09T07:56:13.506Z,1001.69
2023-05-09T07:57:13.444Z,1001.74
2023-05-09T07:58:13.416Z,1001.80
2023-05-09T07:59:13.410Z,1001.80
2023-05-09T08:00:13.416Z,1001.78
2023-05-09T08:01:13.400Z,1001.72
2023-05-09T08:02:13.399Z,1001.67
2023-05-09T08:03:13.647Z,1001.63
2023-05-09T08:04:13.452Z,1001.62
2023-05-09T08:05:13.777Z,1001.62
2023-05-09T08:06:13.310Z,1001.65
2023-05-09T08:07:13.298Z,1001.62
2023-05-09T08:08:13.286Z,1001.60
2023-05-09T08:09:13.268Z,1001.55
2023-05-09T08:10:13.269Z,1001.49
2023-05-09T08:11:13.250Z,1001.47
2023-05-09T08:12:13.229Z,1001.53
2023-05-09T08:13:13.248Z,1001.52
2023-05-09T08:14:15.478Z,1001.44
2023-05-09T08:15:13.595Z,1001.42
2023-05-09T08:16:13.188Z,1001.39
2023-05-09T08:17:13.164Z,1001.39
2023-05-09T08:18:13.156Z,1001.40
2023-05-09T08:19:13.285Z,1001.32
2023-05-09T08:20:13.179Z,1001.29
2023-05-09T08:21:13.121Z,1001.33
2023-05-09T08:22:13.123Z,1001.24
2023-05-09T08:23:13.112Z,1001.21
2023-05-09T08:24:13.091Z,1001.31
2023-05-09T08:25:13.219Z,1001.25
2023-05-09T08:26:13.051Z,1001.25
2023-05-09T08:27:13.037Z,1001.29
2023-05-09T08:28:13.044Z,1001.25
2023-05-09T08:29:13.025Z,1001.25
2023-05-09T08:30:13.004Z,1001.23
2023-05-09T08:31:13.014Z,1001.26
2023-05-09T08:32:12.977Z,1001.21
2023-05-09T08:33:13.005Z,1001.18
2023-05-09T08:34:12.947Z,1001.15
2023-05-09T08:35:13.181Z,1001.09
2023-05-09T08:36:12.935Z,1001.20
2023-05-09T08:37:15.068Z,1001.25
2023-05-09T08:38:12.933Z,1001.13
2023-05-09T08:39:12.881Z,1001.11
2023-05-09T08:40:13.283Z,1001.10
2023-05-09T08:41:12.870Z,1001.11
2023-05-09T08:42:12.878Z,1001.23
2023-05-09T08:43:12.832Z,1001.12
2023-05-09T08:44:12.827Z,1001.14
2023-05-09T08:45:12.805Z,1001.00
2023-05-09T08:46:12.819Z,1001.10
2023-05-09T08:47:12.793Z,1001.04
2023-05-09T08:48:12.776Z,1001.11
2023-05-09T08:49:12.755Z,1001.05
2023-05-09T08:50:12.802Z,1001.14
2023-05-09T08:51:12.854Z,1001.19
2023-05-09T08:52:12.729Z,1001.10
2023-05-09T08:53:12.709Z,1001.07
2023-05-09T08:54:12.686Z,1001.00
2023-05-09T08:55:12.714Z,1000.97
2023-05-09T08:56:12.672Z,1001.04
2023-05-09T08:57:12.646Z,1000.99
2023-05-09T08:58:12.632Z,1001.04
2023-05-09T08:59:12.628Z,1001.01
2023-05-09T09:00:12.670Z,1000.96
2023-05-09T09:01:12.677Z,1000.96
2023-05-09T09:02:12.636Z,1000.97
2023-05-09T09:03:12.605Z,1000.92
2023-05-09T09:04:12.559Z,1000.90
2023-05-09T09:05:23.995Z,1000.95
2023-05-09T09:06:13.540Z,1000.93
2023-05-09T09:07:12.529Z,1001.02
2023-05-09T09:08:12.500Z,1000.93
2023-05-09T09:09:12.488Z,1000.92
2023-05-09T09:10:12.611Z,1000.89
2023-05-09T09:11:12.460Z,1000.95
2023-05-09T09:12:12.452Z,1000.88
2023-05-09T09:13:12.480Z,1000.87
2023-05-09T09:14:12.424Z,1000.82
2023-05-09T09:15:12.429Z,1000.83
2023-05-09T09:16:12.422Z,1000.80
2023-05-09T09:17:12.380Z,1000.73
2023-05-09T09:18:12.467Z,1000.72
2023-05-09T09:19:12.362Z,1000.75
2023-05-09T09:20:12.537Z,1000.60
2023-05-09T09:21:12.338Z,1000.73
2023-05-09T09:22:12.315Z,1000.70
2023-05-09T09:23:12.415Z,1000.76
2023-05-09T09:24:12.307Z,1000.61
2023-05-09T09:25:12.285Z,1000.69
2023-05-09T09:26:12.259Z,1000.76
2023-05-09T09:27:12.251Z,1000.60
2023-05-09T09:28:12.236Z,1000.60
2023-05-09T09:29:12.243Z,1000.61
2023-05-09T09:30:12.262Z,1000.64
2023-05-09T09:31:12.194Z,1000.56
2023-05-09T09:32:12.275Z,1000.58
2023-05-09T09:33:12.178Z,1000.56
2023-05-09T09:34:12.169Z,1000.52
2023-05-09T09:35:12.140Z,1000.59
2023-05-09T09:36:12.128Z,1000.58
2023-05-09T09:37:12.113Z,1000.55
2023-05-09T09:38:12.122Z,1000.51
2023-05-09T09:39:12.215Z,1000.55
2023-05-09T09:40:12.377Z,1000.49
2023-05-09T09:41:12.068Z,1000.48
2023-05-09T09:42:12.059Z,1000.52
2023-05-09T09:43:12.047Z,1000.39
2023-05-09T09:44:12.021Z,1000.38
2023-05-09T09:45:12.003Z,1000.40
2023-05-09T09:46:12.065Z,1000.41
2023-05-09T09:47:11.974Z,1000.37
2023-05-09T09:48:12.072Z,1000.38
2023-05-09T09:49:11.960Z,1000.31
2023-05-09T09:50:12.112Z,1000.33
2023-05-09T09:51:11.974Z,1000.27
2023-05-09T09:52:11.915Z,1000.31
2023-05-09T09:53:11.929Z,1000.29
2023-05-09T09:54:11.892Z,1000.28
2023-05-09T09:55:11.985Z,1000.25
2023-05-09T09:56:11.860Z,1000.29
2023-05-09T09:57:11.869Z,1000.27
2023-05-09T09:58:11.852Z,1000.19
2023-05-09T09:59:11.817Z,1000.25
2023-05-09T10:00:11.885Z,1000.14
2023-05-09T10:01:11.929Z,1000.22
2023-05-09T10:02:11.798Z,1000.15
2023-05-09T10:03:11.833Z,1000.16
2023-05-09T10:04:11.792Z,1000.12
2023-05-09T10:05:11.737Z,1000.16
2023-05-09T10:06:11.753Z,1000.17
2023-05-09T10:07:14.606Z,1000.10
2023-05-09T10:08:11.701Z,1000.05
2023-05-09T10:09:11.691Z,1000.07
2023-05-09T10:10:11.671Z,1000.10
2023-05-09T10:11:11.788Z,1000.10
2023-05-09T10:12:11.684Z,1000.04
2023-05-09T10:13:11.688Z,1000.09
2023-05-09T10:14:11.621Z,1000.09
2023-05-09T10:15:11.602Z,1000.08
2023-05-09T10:16:11.702Z,1000.00
2023-05-09T10:17:11.641Z,1000.06
2023-05-09T10:18:11.714Z,1000.06
2023-05-09T10:19:11.571Z,1000.00
2023-05-09T10:20:11.542Z,1000.01
2023-05-09T10:21:11.577Z,999.97
2023-05-09T10:22:11.520Z,999.99
2023-05-09T10:23:11.497Z,999.98
2023-05-09T10:24:11.488Z,999.98
2023-05-09T10:25:11.484Z,1000.00
2023-05-09T10:26:11.479Z,999.93
2023-05-09T10:27:11.565Z,999.90
2023-05-09T10:28:11.436Z,999.95
2023-05-09T10:29:11.430Z,999.98
2023-05-09T10:30:11.422Z,999.88
2023-05-09T10:31:11.449Z,999.88
2023-05-09T10:32:11.378Z,999.85
2023-05-09T10:33:11.559Z,999.88
2023-05-09T10:34:11.376Z,999.84
2023-05-09T10:35:11.354Z,999.78
2023-05-09T10:36:11.324Z,999.79
2023-05-09T10:37:11.302Z,999.77
2023-05-09T10:38:11.299Z,999.75
2023-05-09T10:39:11.302Z,999.71
2023-05-09T10:40:11.285Z,999.71
2023-05-09T10:41:11.268Z,999.72
2023-05-09T10:42:11.244Z,999.61
2023-05-09T10:43:11.346Z,999.64
2023-05-09T10:44:11.232Z,999.62
2023-05-09T10:45:11.211Z,999.60
2023-05-09T10:46:11.220Z,999.59
2023-05-09T10:47:11.172Z,999.54
2023-05-09T10:48:11.175Z,999.56
2023-05-09T10:49:11.161Z,999.51
2023-05-09T10:50:11.132Z,999.48
2023-05-09T10:51:11.120Z,999.49
2023-05-09T10:52:11.111Z,999.45
2023-05-09T10:53:11.105Z,999.47
2023-05-09T10:54:11.101Z,999.36
2023-05-09T10:55:11.078Z,999.37
2023-05-09T10:56:11.072Z,999.40
2023-05-09T10:57:11.044Z,999.32
2023-05-09T10:58:11.043Z,999.31
2023-05-09T10:59:11.129Z,999.29
2023-05-09T11:00:11.008Z,999.26
2023-05-09T11:01:11.028Z,999.26
2023-05-09T11:02:11.014Z,999.21
2023-05-09T11:03:11.080Z,999.21
2023-05-09T11:04:10.990Z,999.21
2023-05-09T11:05:10.935Z,999.17
2023-05-09T11:06:10.920Z,999.19
2023-05-09T11:07:10.929Z,999.20
2023-05-09T11:08:10.892Z,999.16
2023-05-09T11:09:10.885Z,999.14
2023-05-09T11:10:10.876Z,999.09
2023-05-09T11:11:10.863Z,999.11
2023-05-09T11:12:10.921Z,999.08
2023-05-09T11:13:10.843Z,999.05
2023-05-09T11:14:10.817Z,999.09
2023-05-09T11:15:10.915Z,999.00
2023-05-09T11:16:10.819Z,999.04
2023-05-09T11:17:10.791Z,999.00
2023-05-09T11:18:10.815Z,999.00
2023-05-09T11:19:10.749Z,998.97
2023-05-09T11:20:10.741Z,998.96
2023-05-09T11:21:10.746Z,998.97
2023-05-09T11:22:10.710Z,998.94
2023-05-09T11:23:10.692Z,998.91
2023-05-09T11:24:10.685Z,998.85
2023-05-09T11:25:10.668Z,998.92
2023-05-09T11:26:10.674Z,998.86
2023-05-09T11:27:10.649Z,998.76
2023-05-09T11:28:10.634Z,998.80
2023-05-09T11:29:10.625Z,998.79
2023-05-09T11:30:10.619Z,998.76
2023-05-09T11:31:10.734Z,998.81
2023-05-09T11:32:10.722Z,998.79
2023-05-09T11:33:10.595Z,998.72
2023-05-09T11:34:10.555Z,998.76
2023-05-09T11:35:10.549Z,998.75
2023-05-09T11:36:10.526Z,998.73
2023-05-09T11:37:10.509Z,998.68
2023-05-09T11:38:10.500Z,998.69
2023-05-09T11:39:10.490Z,998.67
2023-05-09T11:40:10.491Z,998.69
2023-05-09T11:41:10.455Z,998.63
2023-05-09T11:42:10.448Z,998.78
2023-05-09T11:43:10.438Z,998.73
2023-05-09T11:44:10.430Z,998.69
2023-05-09T11:45:10.427Z,998.68
2023-05-09T11:46:10.464Z,998.67
2023-05-09T11:47:10.499Z,998.72
2023-05-09T11:48:10.439Z,998.70
2023-05-09T11:49:12.041Z,998.71
2023-05-09T11:50:10.357Z,998.64
2023-05-09T11:51:10.328Z,998.56
2023-05-09T11:52:10.315Z,998.58
2023-05-09T11:53:10.308Z,998.53
2023-05-09T11:54:10.306Z,998.49
2023-05-09T11:55:12.415Z,998.55
2023-05-09T11:56:10.273Z,998.37
2023-05-09T11:57:10.262Z,998.41
2023-05-09T11:58:10.235Z,998.33
2023-05-09T11:59:10.237Z,998.37
2023-05-09T12:00:10.260Z,998.44
2023-05-09T12:01:11.988Z,998.35
2023-05-09T12:02:10.214Z,998.38
2023-05-09T12:03:10.385Z,998.29
2023-05-09T12:04:10.305Z,998.29
2023-05-09T12:05:10.151Z,998.29
2023-05-09T12:06:10.137Z,998.25
2023-05-09T12:07:10.118Z,998.24
2023-05-09T12:08:10.122Z,998.20
2023-05-09T12:09:10.110Z,998.20